Airport View

Enter AWOS ICAO identifier for current METAR.

ex. KFNL

KYKM 191853Z 33014G18KT 10SM CLR 22/02 A3004 RMK AO2 SLP169 T02220022

19 Jun 2019 19:55

Phone: 509-248-1502

Other Area AWOS: K1S5 - KELN - KHMS - KEAT

TAF KYKM 191735Z 1918/2018 31015G23KT P6SM FEW090 SCT200 FM192300 31024G32KT P6SM FEW090 SCT200 FM200500 32014G22KT P6SM SCT200 FM200800 31008KT P6SM BKN100 FM201700 31014G22KT P6SM SCT100